Welcome to Northern Hawkes Bay. New Zealand.
PWS Header
      nz Flag



Hit Counter


W3C Valid W3C Valid logo


    Wairoa

Select any of the Stations below to visit their websites.










Historic Data from Weather Underground
Select the location of interest below. Wairoa is the default. Please have patience, this Data is slow to load in.
Northern Hawkes Bay Historical Data
Daily Summary for September 27, 2017 Units:  Metric    English   Both
« Previous Day
Next Day »
Daily Weekly Monthly Yearly Custom
  High: Low: Average:
Temperature: 18.3 °C 10.7 °C 14.9 °C
Dew Point: 12.3 °C 9.5 °C 11.2 °C
Humidity: 99% 61% 80%
Wind Speed: 13.4km/h 0.0km/h 2.3km/h
Wind Gust: 23.3km/h - -
Wind- - SSE
Pressure: 1013.1 hPa 1007.0 hPa -
Precipitation: 0.0 mm    
Historical Graphs
 
 
Tabular Data for September 27, 2017
Time Temperature Dew Point Pressure Wind Wind Speed Wind Gust Humidity Rainfall Rate (Hourly) solar
00:02 17.7 °C 11.5 °C 1007.0 hPa SSW 1.1 km/h 6.1 km/h 67% 0.0 mm 0 W/m2
00:07 17.8 °C 11.4 °C 1007.0 hPa NE 2.6 km/h 8.7 km/h 66% 0.0 mm 0 W/m2
00:12 18.3 °C 11.8 °C 1007.3 hPa NNW 8.7 km/h 14.8 km/h 66% 0.0 mm 0 W/m2
00:17 18.3 °C 11.8 °C 1007.3 hPa NNW 7.2 km/h 20.9 km/h 66% 0.0 mm 0 W/m2
00:22 18.1 °C 11.7 °C 1007.3 hPa NW 7.2 km/h 23.3 km/h 66% 0.0 mm 0 W/m2
00:27 17.8 °C 11.4 °C 1007.0 hPa WNW 6.1 km/h 23.3 km/h 66% 0.0 mm 0 W/m2
00:32 17.6 °C 10.9 °C 1007.0 hPa NW 5.0 km/h 20.9 km/h 65% 0.0 mm 0 W/m2
00:37 17.3 °C 10.7 °C 1007.0 hPa NW 9.7 km/h 20.9 km/h 65% 0.0 mm 0 W/m2
00:42 17.0 °C 10.6 °C 1007.3 hPa NW 6.1 km/h 20.9 km/h 66% 0.0 mm 0 W/m2
00:47 16.9 °C 10.9 °C 1007.3 hPa WNW 3.5 km/h 20.9 km/h 68% 0.0 mm 0 W/m2
00:52 16.7 °C 10.8 °C 1007.3 hPa WNW 3.5 km/h 15.8 km/h 68% 0.0 mm 0 W/m2
00:57 16.7 °C 10.8 °C 1007.3 hPa Calm   15.8 km/h 68% 0.0 mm 0 W/m2
01:02 16.7 °C 10.6 °C 1007.3 hPa Calm   14.8 km/h 67% 0.0 mm 0 W/m2
01:07 16.9 °C 10.5 °C 1007.3 hPa West 5.0 km/h 13.4 km/h 66% 0.0 mm 0 W/m2
01:12 16.9 °C 10.5 °C 1007.3 hPa Calm   13.4 km/h 66% 0.0 mm 0 W/m2
01:17 16.7 °C 10.3 °C 1007.3 hPa Calm   13.4 km/h 66% 0.0 mm 0 W/m2
01:22 16.7 °C 10.3 °C 1007.3 hPa WNW 5.0 km/h 14.8 km/h 66% 0.0 mm 0 W/m2
01:27 16.7 °C 10.3 °C 1007.3 hPa WNW 3.5 km/h 14.8 km/h 66% 0.0 mm 0 W/m2
01:33 16.6 °C 10.2 °C 1007.3 hPa WNW 8.7 km/h 11.1 km/h 66% 0.0 mm 0 W/m2
01:38 16.6 °C 10.2 °C 1007.7 hPa WNW 5.0 km/h 13.4 km/h 66% 0.0 mm 0 W/m2
01:43 16.6 °C 10.2 °C 1007.3 hPa WNW 6.1 km/h 13.4 km/h 66% 0.0 mm 0 W/m2
01:48 16.5 °C 10.1 °C 1007.7 hPa WNW 3.5 km/h 12.2 km/h 66% 0.0 mm 0 W/m2
01:53 16.5 °C 10.1 °C 1007.7 hPa NW 5.0 km/h 18.3 km/h 66% 0.0 mm 0 W/m2
01:58 16.5 °C 10.3 °C 1007.3 hPa NW 2.6 km/h 18.3 km/h 67% 0.0 mm 0 W/m2
02:03 16.5 °C 10.3 °C 1007.7 hPa NW 6.1 km/h 13.4 km/h 67% 0.0 mm 0 W/m2
02:08 16.4 °C 10.3 °C 1007.7 hPa Calm   12.2 km/h 67% 0.0 mm 0 W/m2
02:13 16.4 °C 10.3 °C 1007.7 hPa Calm   11.1 km/h 67% 0.0 mm 0 W/m2
02:18 16.3 °C 10.2 °C 1007.7 hPa Calm   7.2 km/h 67% 0.0 mm 0 W/m2
02:23 16.3 °C 10.4 °C 1007.7 hPa Calm   5.0 km/h 68% 0.0 mm 0 W/m2
02:28 16.3 °C 10.6 °C 1007.7 hPa Calm   1.1 km/h 69% 0.0 mm 0 W/m2
02:33 16.1 °C 10.6 °C 1007.3 hPa Calm   3.5 km/h 70% 0.0 mm 0 W/m2
02:38 16.1 °C 10.8 °C 1007.7 hPa Calm   5.0 km/h 71% 0.0 mm 0 W/m2
02:43 16.0 °C 10.8 °C 1007.7 hPa Calm   5.0 km/h 71% 0.0 mm 0 W/m2
02:48 16.0 °C 10.8 °C 1007.3 hPa East 2.6 km/h 6.1 km/h 71% 0.0 mm 0 W/m2
02:53 15.9 °C 11.1 °C 1007.3 hPa ENE 3.5 km/h 8.7 km/h 73% 0.0 mm 0 W/m2
02:58 15.7 °C 11.5 °C 1007.3 hPa ENE 5.0 km/h 12.2 km/h 76% 0.0 mm 0 W/m2
03:03 15.5 °C 11.9 °C 1007.3 hPa East 7.2 km/h 15.8 km/h 79% 0.0 mm 0 W/m2
03:08 15.3 °C 11.9 °C 1007.3 hPa East 5.0 km/h 15.8 km/h 80% 0.0 mm 0 W/m2
03:13 15.2 °C 11.9 °C 1007.3 hPa Calm   13.4 km/h 81% 0.0 mm 0 W/m2
03:18 15.2 °C 12.2 °C 1007.3 hPa Calm   9.7 km/h 82% 0.0 mm 0 W/m2
03:23 15.1 °C 12.1 °C 1007.3 hPa Calm   6.1 km/h 82% 0.0 mm 0 W/m2
03:28 15.0 °C 11.9 °C 1007.3 hPa Calm   3.5 km/h 82% 0.0 mm 0 W/m2
03:33 15.1 °C 11.9 °C 1007.3 hPa Calm   5.0 km/h 81% 0.0 mm 0 W/m2
03:38 15.2 °C 11.6 °C 1007.3 hPa Calm   5.0 km/h 79% 0.0 mm 0 W/m2
03:43 15.2 °C 11.4 °C 1007.3 hPa Calm   3.5 km/h 78% 0.0 mm 0 W/m2
03:48 15.2 °C 11.2 °C 1007.3 hPa Calm   3.5 km/h 77% 0.0 mm 0 W/m2
03:53 15.3 °C 11.3 °C 1007.3 hPa Calm   7.2 km/h 77% 0.0 mm 0 W/m2
03:58 15.3 °C 11.1 °C 1007.3 hPa Calm   7.2 km/h 76% 0.0 mm 0 W/m2
04:03 15.2 °C 11.0 °C 1007.3 hPa Calm     76% 0.0 mm 0 W/m2
04:08 15.1 °C 10.9 °C 1007.0 hPa Calm     76% 0.0 mm 0 W/m2
04:13 15.0 °C 11.0 °C 1007.0 hPa Calm     77% 0.0 mm 0 W/m2
04:18 14.9 °C 11.1 °C 1007.3 hPa Calm     78% 0.0 mm 0 W/m2
04:23 14.7 °C 10.9 °C 1007.0 hPa Calm     78% 0.0 mm 0 W/m2
04:28 14.5 °C 10.9 °C 1007.0 hPa Calm     79% 0.0 mm 0 W/m2
04:33 14.3 °C 10.9 °C 1007.3 hPa Calm     80% 0.0 mm 0 W/m2
04:38 14.1 °C 10.9 °C 1007.3 hPa Calm     81% 0.0 mm 0 W/m2
04:43 13.9 °C 11.1 °C 1007.3 hPa Calm     83% 0.0 mm 0 W/m2
04:48 13.7 °C 10.9 °C 1007.3 hPa Calm     83% 0.0 mm 0 W/m2
04:53 13.7 °C 10.9 °C 1007.3 hPa Calm   1.1 km/h 83% 0.0 mm 0 W/m2
04:58 13.6 °C 10.8 °C 1007.3 hPa Calm   1.1 km/h 83% 0.0 mm 0 W/m2
05:03 13.7 °C 11.1 °C 1007.7 hPa Calm     84% 0.0 mm 0 W/m2
05:08 13.7 °C 10.9 °C 1007.3 hPa Calm     83% 0.0 mm 0 W/m2
05:13 13.6 °C 10.9 °C 1007.7 hPa Calm     84% 0.0 mm 0 W/m2
05:18 13.7 °C 11.2 °C 1007.3 hPa Calm     85% 0.0 mm 0 W/m2
05:23 13.7 °C 11.2 °C 1007.3 hPa NE 2.6 km/h 5.0 km/h 85% 0.0 mm 0 W/m2
05:33 14.3 °C 11.6 °C 1007.7 hPa Calm   6.1 km/h 84% 0.0 mm 0 W/m2
05:38 14.5 °C 11.8 °C 1007.7 hPa Calm   6.1 km/h 84% 0.0 mm 0 W/m2
05:43 14.4 °C 11.7 °C 1007.7 hPa Calm   1.1 km/h 84% 0.0 mm 0 W/m2
05:48 14.4 °C 11.9 °C 1008.0 hPa Calm   2.6 km/h 85% 0.0 mm 0 W/m2
05:53 14.4 °C 11.9 °C 1008.0 hPa Calm   2.6 km/h 85% 0.0 mm 0 W/m2
05:58 14.4 °C 12.1 °C 1007.7 hPa Calm   2.6 km/h 86% 0.0 mm 0 W/m2
06:03 14.3 °C 12.0 °C 1008.0 hPa Calm   2.6 km/h 86% 0.0 mm 0 W/m2
06:08 14.3 °C 12.0 °C 1008.0 hPa NE 1.1 km/h 3.5 km/h 86% 0.0 mm 0 W/m2
06:13 14.4 °C 12.1 °C 1008.0 hPa NE 7.2 km/h 11.1 km/h 86% 0.0 mm 0 W/m2
06:18 14.6 °C 12.3 °C 1008.0 hPa NE 5.0 km/h 11.1 km/h 86% 0.0 mm 0 W/m2
06:23 14.7 °C 12.2 °C 1007.7 hPa NE 6.1 km/h 11.1 km/h 85% 0.0 mm 0 W/m2
06:28 14.8 °C 12.3 °C 1008.0 hPa NE 1.1 km/h 9.7 km/h 85% 0.0 mm 0 W/m2
06:33 14.8 °C 12.3 °C 1008.4 hPa Calm   9.7 km/h 85% 0.0 mm 0 W/m2
06:38 14.8 °C 12.3 °C 1008.4 hPa North 1.1 km/h 3.5 km/h 85% 0.0 mm 0 W/m2
06:43 14.7 °C 12.2 °C 1008.4 hPa North 1.1 km/h 3.5 km/h 85% 0.0 mm 0 W/m2
06:48 14.6 °C 12.1 °C 1008.7 hPa NNW 2.6 km/h 3.5 km/h 85% 0.0 mm 0 W/m2
06:53 14.6 °C 12.1 °C 1008.7 hPa NNW 2.6 km/h 3.5 km/h 85% 0.0 mm 0 W/m2
06:58 14.8 °C 12.3 °C 1008.7 hPa North 2.6 km/h 5.0 km/h 85% 0.0 mm 0 W/m2
07:03 14.8 °C 12.1 °C 1008.7 hPa Calm   6.1 km/h 84% 0.0 mm 0 W/m2
07:08 14.8 °C 12.1 °C 1008.7 hPa NE 3.5 km/h 7.2 km/h 84% 0.0 mm 0 W/m2
07:13 14.8 °C 11.9 °C 1008.7 hPa Calm   9.7 km/h 83% 0.0 mm 0 W/m2
07:18 14.7 °C 11.5 °C 1008.7 hPa Calm   9.7 km/h 81% 0.0 mm 3 W/m2
07:23 14.7 °C 11.5 °C 1008.4 hPa ENE 1.1 km/h 2.6 km/h 81% 0.0 mm 3 W/m2
07:33 14.7 °C 11.3 °C 1008.7 hPa Calm   3.5 km/h 80% 0.0 mm 4 W/m2
07:38 14.7 °C 11.7 °C 1008.7 hPa ENE 3.5 km/h 7.2 km/h 82% 0.0 mm 5 W/m2
07:43 14.6 °C 11.9 °C 1009.0 hPa ENE 3.5 km/h 7.2 km/h 84% 0.0 mm 8 W/m2
07:48 14.5 °C 12.0 °C 1008.7 hPa NE 5.0 km/h 7.2 km/h 85% 0.0 mm 11 W/m2
07:53 14.5 °C 12.0 °C 1009.0 hPa NE 5.0 km/h 7.2 km/h 85% 0.0 mm 19 W/m2
07:58 14.5 °C 12.0 °C 1009.0 hPa NE 2.6 km/h 8.7 km/h 85% 0.0 mm 25 W/m2
08:08 14.4 °C 11.9 °C 1009.0 hPa NE 1.1 km/h 8.7 km/h 85% 0.0 mm 23 W/m2
08:13 14.4 °C 11.9 °C 1009.0 hPa ENE 1.1 km/h 5.0 km/h 85% 0.0 mm 22 W/m2
08:23 14.3 °C 11.8 °C 1009.0 hPa NE 3.5 km/h 7.2 km/h 85% 0.0 mm 26 W/m2
08:28 14.2 °C 11.7 °C 1009.0 hPa ENE 3.5 km/h 7.2 km/h 85% 0.0 mm 27 W/m2
08:33 14.1 °C 11.8 °C 1009.0 hPa Calm   7.2 km/h 86% 0.0 mm 29 W/m2
08:38 14.1 °C 11.8 °C 1009.4 hPa NNE 2.6 km/h 7.2 km/h 86% 0.0 mm 30 W/m2
08:43 14.1 °C 11.8 °C 1009.4 hPa NNE 2.6 km/h 6.1 km/h 86% 0.0 mm 28 W/m2
08:48 14.1 °C 11.8 °C 1009.4 hPa NNE 1.1 km/h 5.0 km/h 86% 0.0 mm 28 W/m2
08:53 14.1 °C 11.8 °C 1009.7 hPa NNE 5.0 km/h 6.1 km/h 86% 0.0 mm 41 W/m2
08:58 14.1 °C 11.8 °C 1009.4 hPa North 2.6 km/h 6.1 km/h 86% 0.0 mm 48 W/m2
09:03 14.2 °C 11.9 °C 1009.4 hPa North 1.1 km/h 6.1 km/h 86% 0.0 mm 49 W/m2
09:08 14.3 °C 11.8 °C 1009.4 hPa North 2.6 km/h 5.0 km/h 85% 0.0 mm 47 W/m2
09:13 14.3 °C 11.8 °C 1009.7 hPa North 6.1 km/h 9.7 km/h 85% 0.0 mm 45 W/m2
09:18 14.3 °C 11.8 °C 1009.7 hPa North 5.0 km/h 9.7 km/h 85% 0.0 mm 45 W/m2
09:23 14.3 °C 11.8 °C 1010.0 hPa North 3.5 km/h 9.7 km/h 85% 0.0 mm 50 W/m2
09:28 14.3 °C 11.6 °C 1009.7 hPa North 3.5 km/h 8.7 km/h 84% 0.0 mm 50 W/m2
09:33 14.4 °C 11.7 °C 1010.0 hPa North 2.6 km/h 8.7 km/h 84% 0.0 mm 56 W/m2
09:38 14.4 °C 11.6 °C 1010.0 hPa NNW 3.5 km/h 7.2 km/h 83% 0.0 mm 44 W/m2
09:43 14.5 °C 11.4 °C 1010.0 hPa NNW 6.1 km/h 11.1 km/h 82% 0.0 mm 45 W/m2
09:48 14.5 °C 11.4 °C 1010.0 hPa North 3.5 km/h 11.1 km/h 82% 0.0 mm 50 W/m2
09:53 14.5 °C 11.4 °C 1010.0 hPa North 3.5 km/h 9.7 km/h 82% 0.0 mm 57 W/m2
09:58 14.6 °C 11.6 °C 1010.0 hPa North 1.1 km/h 12.2 km/h 82% 0.0 mm 64 W/m2
10:03 14.5 °C 11.4 °C 1010.0 hPa North 5.0 km/h 12.2 km/h 82% 0.0 mm 65 W/m2
10:08 14.5 °C 11.7 °C 1010.0 hPa North 3.5 km/h 9.7 km/h 83% 0.0 mm 63 W/m2
10:13 14.6 °C 11.6 °C 1010.0 hPa North 3.5 km/h 14.8 km/h 82% 0.0 mm 60 W/m2
10:18 14.7 °C 11.5 °C 1010.0 hPa North 3.5 km/h 14.8 km/h 81% 0.0 mm 68 W/m2
10:23 14.8 °C 11.4 °C 1010.0 hPa NNW 5.0 km/h 9.7 km/h 80% 0.0 mm 91 W/m2
10:28 14.8 °C 11.0 °C 1010.0 hPa NNW 3.5 km/h 9.7 km/h 78% 0.0 mm 88 W/m2
10:33 15.0 °C 11.0 °C 1010.0 hPa North 2.6 km/h 9.7 km/h 77% 0.0 mm 81 W/m2
10:38 15.0 °C 11.2 °C 1010.0 hPa NNW 3.5 km/h 8.7 km/h 78% 0.0 mm 71 W/m2
10:43 14.9 °C 11.5 °C 1010.0 hPa NNW 2.6 km/h 8.7 km/h 80% 0.0 mm 72 W/m2
10:48 14.9 °C 11.5 °C 1010.0 hPa NNE 1.1 km/h 8.7 km/h 80% 0.0 mm 75 W/m2
10:53 14.9 °C 11.7 °C 1010.0 hPa NE 2.6 km/h 8.7 km/h 81% 0.0 mm 85 W/m2
10:58 14.8 °C 11.4 °C 1010.0 hPa NNE 3.5 km/h 11.1 km/h 80% 0.0 mm 93 W/m2
11:03 14.8 °C 11.4 °C 1010.0 hPa NNW 3.5 km/h 11.1 km/h 80% 0.0 mm 75 W/m2
11:08 14.8 °C 11.4 °C 1010.4 hPa North 3.5 km/h 9.7 km/h 80% 0.0 mm 66 W/m2
11:13 14.8 °C 11.6 °C 1010.0 hPa NNE 6.1 km/h 8.7 km/h 81% 0.0 mm 82 W/m2
11:18 14.8 °C 11.6 °C 1010.4 hPa NNE 2.6 km/h 11.1 km/h 81% 0.0 mm 91 W/m2
11:23 14.7 °C 11.7 °C 1010.4 hPa North 6.1 km/h 12.2 km/h 82% 0.0 mm 79 W/m2
11:28 14.5 °C 11.8 °C 1010.7 hPa North 5.0 km/h 12.2 km/h 84% 0.0 mm 80 W/m2
11:33 14.4 °C 11.9 °C 1010.7 hPa NNW 11.1 km/h 15.8 km/h 85% 0.0 mm 93 W/m2
11:38 14.2 °C 11.7 °C 1010.4 hPa North 9.7 km/h 20.9 km/h 85% 0.0 mm 110 W/m2
11:43 14.3 °C 12.0 °C 1010.4 hPa NNE 5.0 km/h 20.9 km/h 86% 0.0 mm 157 W/m2
11:48 14.4 °C 12.1 °C 1010.4 hPa North 7.2 km/h 14.8 km/h 86% 0.0 mm 115 W/m2
11:53 14.5 °C 12.2 °C 1010.4 hPa NNW 12.2 km/h 14.8 km/h 86% 0.0 mm 95 W/m2
11:58 14.3 °C 11.8 °C 1010.0 hPa North 13.4 km/h 23.3 km/h 85% 0.0 mm 118 W/m2
12:16 15.2 °C 12.2 °C 1010.0 hPa North 1.1 km/h 9.7 km/h 82% 0.0 mm 213 W/m2
12:21 15.6 °C 12.0 °C 1010.0 hPa NNW 2.6 km/h 9.7 km/h 79% 0.0 mm 212 W/m2
12:26 15.8 °C 11.6 °C 1010.0 hPa NNW 6.1 km/h 11.1 km/h 76% 0.0 mm 147 W/m2
12:31 15.7 °C 11.3 °C 1010.0 hPa NW 3.5 km/h 11.1 km/h 75% 0.0 mm 142 W/m2
12:36 15.7 °C 11.5 °C 1010.0 hPa NNW 3.5 km/h 9.7 km/h 76% 0.0 mm 124 W/m2
12:41 15.6 °C 11.2 °C 1010.0 hPa North 1.1 km/h 13.4 km/h 75% 0.0 mm 150 W/m2
12:46 15.8 °C 11.6 °C 1010.0 hPa North 3.5 km/h 13.4 km/h 76% 0.0 mm 152 W/m2
12:51 15.8 °C 11.4 °C 1010.0 hPa North 3.5 km/h 12.2 km/h 75% 0.0 mm 139 W/m2
12:56 15.8 °C 11.8 °C 1010.4 hPa North 8.7 km/h 18.3 km/h 77% 0.0 mm 139 W/m2
13:01 15.6 °C 12.0 °C 1010.4 hPa NNW 6.1 km/h 18.3 km/h 79% 0.0 mm 154 W/m2
13:06 15.5 °C 11.9 °C 1010.4 hPa NNW 7.2 km/h 13.4 km/h 79% 0.0 mm 136 W/m2
13:11 15.6 °C 12.2 °C 1010.4 hPa North 5.0 km/h 12.2 km/h 80% 0.0 mm 103 W/m2
13:16 15.5 °C 11.9 °C 1010.4 hPa North 7.2 km/h 12.2 km/h 79% 0.0 mm 127 W/m2
13:21 15.7 °C 12.1 °C 1010.0 hPa North 3.5 km/h 12.2 km/h 79% 0.0 mm 216 W/m2
13:26 16.1 °C 12.3 °C 1010.0 hPa North 1.1 km/h 8.7 km/h 78% 0.0 mm 241 W/m2
13:31 16.3 °C 11.9 °C 1010.0 hPa North 5.0 km/h 7.2 km/h 75% 0.0 mm 250 W/m2
13:36 16.5 °C 11.8 °C 1010.0 hPa North 5.0 km/h 8.7 km/h 74% 0.0 mm 181 W/m2
13:41 16.3 °C 11.3 °C 1010.0 hPa North 5.0 km/h 11.1 km/h 72% 0.0 mm 135 W/m2
13:46 16.3 °C 11.3 °C 1010.0 hPa Calm   11.1 km/h 72% 0.0 mm 157 W/m2
13:51 16.6 °C 11.7 °C 1010.0 hPa North 3.5 km/h 8.7 km/h 73% 0.0 mm 175 W/m2
13:56 16.6 °C 11.6 °C 1010.4 hPa NNW 6.1 km/h 11.1 km/h 72% 0.0 mm 174 W/m2
14:01 16.5 °C 11.4 °C 1010.4 hPa NNW 6.1 km/h 11.1 km/h 72% 0.0 mm 163 W/m2
14:06 16.4 °C 11.6 °C 1010.0 hPa North 7.2 km/h 12.2 km/h 73% 0.0 mm 162 W/m2
14:11 16.3 °C 11.3 °C 1010.0 hPa North 2.6 km/h 12.2 km/h 72% 0.0 mm 156 W/m2
14:16 16.5 °C 11.4 °C 1009.7 hPa NNE 3.5 km/h 12.2 km/h 72% 0.0 mm 176 W/m2
14:21 16.6 °C 11.6 °C 1010.0 hPa NE 1.1 km/h 9.7 km/h 72% 0.0 mm 178 W/m2
14:26 16.6 °C 11.3 °C 1010.0 hPa NE 6.1 km/h 9.7 km/h 71% 0.0 mm 165 W/m2
14:31 16.4 °C 10.9 °C 1010.0 hPa NE 3.5 km/h 12.2 km/h 70% 0.0 mm 177 W/m2
14:36 16.5 °C 11.2 °C 1009.7 hPa NNE 6.1 km/h 12.2 km/h 71% 0.0 mm 164 W/m2
14:41 16.5 °C 11.0 °C 1009.7 hPa North 6.1 km/h 12.2 km/h 70% 0.0 mm 176 W/m2
14:46 16.4 °C 10.9 °C 1009.7 hPa NNE 6.1 km/h 12.2 km/h 70% 0.0 mm 193 W/m2
14:51 16.3 °C 11.1 °C 1009.7 hPa NNE 5.0 km/h 12.2 km/h 71% 0.0 mm 188 W/m2
14:56 16.6 °C 11.1 °C 1009.7 hPa NNE 3.5 km/h 11.1 km/h 70% 0.0 mm 175 W/m2
15:01 16.3 °C 9.9 °C 1010.0 hPa North 5.0 km/h 14.8 km/h 66% 0.0 mm 149 W/m2
15:06 16.3 °C 10.4 °C 1010.0 hPa North 6.1 km/h 14.8 km/h 68% 0.0 mm 150 W/m2
15:11 16.2 °C 10.1 °C 1010.0 hPa North 2.6 km/h 12.2 km/h 67% 0.0 mm 130 W/m2
15:16 16.1 °C 10.2 °C 1010.0 hPa NNE 5.0 km/h 13.4 km/h 68% 0.0 mm 102 W/m2
15:21 16.0 °C 9.9 °C 1009.7 hPa NNE 3.5 km/h 13.4 km/h 67% 0.0 mm 105 W/m2
15:26 16.1 °C 10.2 °C 1009.7 hPa North 1.1 km/h 12.2 km/h 68% 0.0 mm 107 W/m2
15:31 16.1 °C 10.4 °C 1010.0 hPa North 7.2 km/h 11.1 km/h 69% 0.0 mm 106 W/m2
15:36 15.9 °C 10.4 °C 1010.0 hPa North 3.5 km/h 12.2 km/h 70% 0.0 mm 114 W/m2
15:41 16.0 °C 10.6 °C 1010.0 hPa NNW 5.0 km/h 12.2 km/h 70% 0.0 mm 122 W/m2
15:46 16.0 °C 10.6 °C 1009.7 hPa NNW 6.1 km/h 11.1 km/h 70% 0.0 mm 130 W/m2
15:51 16.0 °C 10.3 °C 1009.7 hPa NNW 1.1 km/h 11.1 km/h 69% 0.0 mm 128 W/m2
15:56 16.2 °C 10.3 °C 1009.7 hPa North 2.6 km/h 11.1 km/h 68% 0.0 mm 128 W/m2
16:01 16.2 °C 10.3 °C 1010.0 hPa North 2.6 km/h 7.2 km/h 68% 0.0 mm 162 W/m2
16:06 16.5 °C 10.8 °C 1009.7 hPa Calm   7.2 km/h 69% 0.0 mm 187 W/m2
16:12 17.1 °C 10.9 °C 1009.7 hPa NE 2.6 km/h 6.1 km/h 67% 0.0 mm 172 W/m2
16:17 17.1 °C 10.2 °C 1009.7 hPa NE 3.5 km/h 8.7 km/h 64% 0.0 mm 173 W/m2
16:22 17.1 °C 9.8 °C 1010.0 hPa NNE 5.0 km/h 8.7 km/h 62% 0.0 mm 168 W/m2
16:27 17.1 °C 9.5 °C 1010.0 hPa NNE 1.1 km/h 6.1 km/h 61% 0.0 mm 154 W/m2
16:32 16.9 °C 9.6 °C 1010.0 hPa NE 2.6 km/h 9.7 km/h 62% 0.0 mm 144 W/m2
16:35 16.9 °C 9.6 °C 1010.0 hPa NE 1.1 km/h 9.7 km/h 62% 0.0 mm 134 W/m2
16:40 16.9 °C 9.6 °C 1010.0 hPa NE 1.1 km/h 6.1 km/h 62% 0.0 mm 115 W/m2
16:46 16.9 °C 9.8 °C 1010.0 hPa Calm   5.0 km/h 63% 0.0 mm 122 W/m2
16:51 16.7 °C 9.6 °C 1010.4 hPa Calm   9.7 km/h 63% 0.0 mm 131 W/m2
16:56 16.9 °C 10.1 °C 1010.0 hPa Calm   9.7 km/h 64% 0.0 mm 117 W/m2
17:01 16.9 °C 9.8 °C 1010.4 hPa NE 3.5 km/h 6.1 km/h 63% 0.0 mm 122 W/m2
17:06 16.7 °C 10.1 °C 1010.4 hPa NE 1.1 km/h 7.2 km/h 65% 0.0 mm 122 W/m2
17:11 16.9 °C 10.3 °C 1010.4 hPa NE 2.6 km/h 7.2 km/h 65% 0.0 mm 114 W/m2
17:16 16.7 °C 10.1 °C 1010.4 hPa Calm   6.1 km/h 65% 0.0 mm 113 W/m2
17:21 16.9 °C 10.5 °C 1010.4 hPa Calm   5.0 km/h 66% 0.0 mm 103 W/m2
17:26 16.9 °C 10.5 °C 1010.4 hPa Calm   3.5 km/h 66% 0.0 mm 99 W/m2
17:31 16.9 °C 10.5 °C 1010.4 hPa NE 3.5 km/h 6.1 km/h 66% 0.0 mm 93 W/m2
17:36 16.6 °C 10.2 °C 1010.4 hPa NE 2.6 km/h 7.2 km/h 66% 0.0 mm 87 W/m2
17:41 16.6 °C 10.4 °C 1010.4 hPa Calm   7.2 km/h 67% 0.0 mm 82 W/m2
17:46 16.7 °C 10.6 °C 1010.4 hPa Calm   3.5 km/h 67% 0.0 mm 79 W/m2
17:51 16.6 °C 10.4 °C 1010.7 hPa NE 2.6 km/h 5.0 km/h 67% 0.0 mm 72 W/m2
17:56 16.4 °C 10.3 °C 1010.7 hPa ENE 1.1 km/h 5.0 km/h 67% 0.0 mm 67 W/m2
18:01 16.2 °C 10.3 °C 1010.7 hPa ENE 5.0 km/h 7.2 km/h 68% 0.0 mm 58 W/m2
18:06 16.0 °C 10.3 °C 1011.1 hPa ENE 6.1 km/h 8.7 km/h 69% 0.0 mm 51 W/m2
18:11 15.8 °C 10.6 °C 1010.7 hPa ENE 2.6 km/h 11.1 km/h 71% 0.0 mm 41 W/m2
18:16 15.7 °C 10.9 °C 1011.1 hPa East 3.5 km/h 11.1 km/h 73% 0.0 mm 36 W/m2
18:21 15.5 °C 10.9 °C 1011.1 hPa East 2.6 km/h 7.2 km/h 74% 0.0 mm 32 W/m2
18:26 15.5 °C 11.3 °C 1011.1 hPa East 1.1 km/h 6.1 km/h 76% 0.0 mm 28 W/m2
18:31 15.4 °C 11.4 °C 1011.1 hPa Calm   5.0 km/h 77% 0.0 mm 24 W/m2
18:36 15.4 °C 11.4 °C 1011.1 hPa Calm   5.0 km/h 77% 0.0 mm 21 W/m2
18:41 15.3 °C 11.5 °C 1011.1 hPa Calm   1.1 km/h 78% 0.0 mm 18 W/m2
18:46 15.2 °C 11.6 °C 1011.1 hPa Calm   2.6 km/h 79% 0.0 mm 12 W/m2
18:51 15.1 °C 11.7 °C 1011.1 hPa Calm   2.6 km/h 80% 0.0 mm 7 W/m2
18:56 14.9 °C 11.8 °C 1011.4 hPa Calm   2.6 km/h 82% 0.0 mm 3 W/m2
19:01 14.6 °C 11.8 °C 1011.1 hPa Calm   3.5 km/h 83% 0.0 mm 1 W/m2
19:06 14.4 °C 11.7 °C 1011.4 hPa Calm   3.5 km/h 84% 0.0 mm 0 W/m2
19:11 14.1 °C 11.4 °C 1011.4 hPa Calm   1.1 km/h 84% 0.0 mm 0 W/m2
19:16 13.9 °C 11.6 °C 1011.1 hPa Calm   2.6 km/h 86% 0.0 mm 0 W/m2
19:21 13.9 °C 11.6 °C 1011.4 hPa Calm   2.6 km/h 86% 0.0 mm 0 W/m2
19:26 13.9 °C 11.8 °C 1011.4 hPa South 1.1 km/h 2.6 km/h 87% 0.0 mm 0 W/m2
19:31 13.7 °C 11.8 °C 1011.4 hPa Calm   3.5 km/h 88% 0.0 mm 0 W/m2
19:36 13.6 °C 11.8 °C 1011.4 hPa Calm   3.5 km/h 89% 0.0 mm 0 W/m2
19:41 13.5 °C 11.9 °C 1011.4 hPa SSE 2.6 km/h 5.0 km/h 90% 0.0 mm 0 W/m2
19:46 13.5 °C 11.9 °C 1011.4 hPa Calm   6.1 km/h 90% 0.0 mm 0 W/m2
19:51 13.4 °C 11.8 °C 1011.4 hPa Calm   6.1 km/h 90% 0.0 mm 0 W/m2
19:56 13.3 °C 11.7 °C 1011.7 hPa Calm     90% 0.0 mm 0 W/m2
20:01 13.2 °C 11.6 °C 1011.7 hPa Calm   2.6 km/h 90% 0.0 mm 0 W/m2
20:06 13.1 °C 11.5 °C 1012.1 hPa Calm   2.6 km/h 90% 0.0 mm 0 W/m2
20:11 13.0 °C 11.4 °C 1011.7 hPa Calm   1.1 km/h 90% 0.0 mm 0 W/m2
20:16 13.1 °C 11.5 °C 1012.1 hPa Calm   1.1 km/h 90% 0.0 mm 0 W/m2
20:21 13.0 °C 11.6 °C 1012.1 hPa Calm   1.1 km/h 91% 0.0 mm 0 W/m2
20:26 13.0 °C 11.6 °C 1012.1 hPa Calm   1.1 km/h 91% 0.0 mm 0 W/m2
20:31 13.1 °C 11.8 °C 1012.1 hPa Calm   1.1 km/h 92% 0.0 mm 0 W/m2
20:36 13.0 °C 11.7 °C 1012.1 hPa Calm   1.1 km/h 92% 0.0 mm 0 W/m2
20:41 12.9 °C 11.6 °C 1012.1 hPa Calm   1.1 km/h 92% 0.0 mm 0 W/m2
20:46 12.8 °C 11.6 °C 1012.4 hPa Calm   1.1 km/h 92% 0.0 mm 0 W/m2
20:51 12.7 °C 11.4 °C 1012.4 hPa Calm   1.1 km/h 92% 0.0 mm 0 W/m2
20:56 12.6 °C 11.3 °C 1012.4 hPa Calm     92% 0.0 mm 0 W/m2
21:01 12.4 °C 11.2 °C 1012.1 hPa Calm     92% 0.0 mm 0 W/m2
21:06 12.3 °C 11.2 °C 1012.4 hPa Calm     93% 0.0 mm 0 W/m2
21:11 12.2 °C 11.1 °C 1012.4 hPa Calm     93% 0.0 mm 0 W/m2
21:16 12.1 °C 11.0 °C 1012.4 hPa Calm     93% 0.0 mm 0 W/m2
21:21 12.1 °C 11.2 °C 1012.8 hPa Calm     94% 0.0 mm 0 W/m2
21:26 12.1 °C 11.3 °C 1012.8 hPa Calm   2.6 km/h 95% 0.0 mm 0 W/m2
21:31 12.1 °C 11.3 °C 1012.8 hPa Calm   2.6 km/h 95% 0.0 mm 0 W/m2
21:36 12.1 °C 11.5 °C 1012.8 hPa North 1.1 km/h 3.5 km/h 96% 0.0 mm 0 W/m2
21:41 12.1 °C 11.5 °C 1013.1 hPa North 1.1 km/h 3.5 km/h 96% 0.0 mm 0 W/m2
21:46 12.1 °C 11.7 °C 1013.1 hPa Calm   3.5 km/h 97% 0.0 mm 0 W/m2
21:51 12.0 °C 11.6 °C 1013.1 hPa NNW 1.1 km/h 3.5 km/h 97% 0.0 mm 0 W/m2
21:56 12.0 °C 11.6 °C 1013.1 hPa Calm   3.5 km/h 97% 0.0 mm 0 W/m2
22:01 11.9 °C 11.6 °C 1013.1 hPa NW 1.1 km/h 3.5 km/h 98% 0.0 mm 0 W/m2
22:06 11.8 °C 11.5 °C 1013.1 hPa NW 1.1 km/h 3.5 km/h 98% 0.0 mm 0 W/m2
22:11 11.7 °C 11.4 °C 1013.1 hPa Calm   3.5 km/h 98% 0.0 mm 0 W/m2
22:16 11.6 °C 11.3 °C 1013.1 hPa Calm   2.6 km/h 98% 0.0 mm 0 W/m2
22:21 11.6 °C 11.3 °C 1013.1 hPa Calm   2.6 km/h 98% 0.0 mm 0 W/m2
22:26 11.5 °C 11.2 °C 1013.1 hPa Calm   2.6 km/h 98% 0.0 mm 0 W/m2
22:31 11.5 °C 11.2 °C 1013.1 hPa Calm   2.6 km/h 98% 0.0 mm 0 W/m2
22:36 11.4 °C 11.1 °C 1013.1 hPa Calm   2.6 km/h 98% 0.0 mm 0 W/m2
22:41 11.4 °C 11.1 °C 1013.1 hPa Calm   2.6 km/h 98% 0.0 mm 0 W/m2
22:46 11.3 °C 11.0 °C 1013.1 hPa Calm   2.6 km/h 98% 0.0 mm 0 W/m2
22:51 11.1 °C 10.8 °C 1012.8 hPa Calm   1.1 km/h 98% 0.0 mm 0 W/m2
22:56 10.9 °C 10.8 °C 1012.8 hPa Calm     99% 0.0 mm 0 W/m2
22:59 10.9 °C 10.8 °C 1012.8 hPa Calm     99% 0.0 mm 0 W/m2
23:05 10.9 °C 10.8 °C 1012.8 hPa Calm   1.1 km/h 99% 0.0 mm 0 W/m2
23:24 10.9 °C 10.8 °C 1012.8 hPa NNW 2.6 km/h 3.5 km/h 99% 0.0 mm 0 W/m2
23:29 10.9 °C 10.8 °C 1012.8 hPa North 1.1 km/h 3.5 km/h 99% 0.0 mm 0 W/m2
23:35 10.9 °C 10.8 °C 1012.8 hPa Calm   3.5 km/h 99% 0.0 mm 0 W/m2
23:40 10.8 °C 10.7 °C 1012.8 hPa Calm   2.6 km/h 99% 0.0 mm 0 W/m2
23:45 10.8 °C 10.7 °C 1012.8 hPa Calm   2.6 km/h 99% 0.0 mm 0 W/m2
23:50 10.7 °C 10.6 °C 1012.8 hPa Calm   1.1 km/h 99% 0.0 mm 0 W/m2
23:55 10.7 °C 10.6 °C 1012.8 hPa Calm   1.1 km/h 99% 0.0 mm 0 W/m2
Northern Hawkes Bay. New Zealand Historic Data
Compliments of Weather Underground - 2 mb